Time;durP1;ratioP1;P1;durP2;ratioP2;P2;SDS_P1;SDS_P2;PMS_P1;PMS_P2;Temp;Humidity;BMP_temperature;BMP_pressure;BME280_temperature;BME280_humidity;BME280_pressure;Samples;Min_cycle;Max_cycle;Signal;HPM_P1;HPM_P2
2022/11/04 00:01:46;;;;;;;11.77;10.63;;;;;;;7.03;100.00;95909.34;5019339;28;20868;-67
2022/11/04 00:04:18;;;;;;;12.83;11.60;;;;;;;7.08;100.00;95907.72;5023343;28;20611;-66
2022/11/04 00:06:46;;;;;;;11.60;10.40;;;;;;;7.01;100.00;95883.19;4997685;28;20660;-66
2022/11/04 00:09:18;;;;;;;11.60;10.50;;;;;;;7.07;100.00;95907.94;5021649;28;20226;-66
2022/11/04 00:14:33;;;;;;;13.53;11.17;;;;;;;6.91;100.00;95932.75;4979635;28;20221;-65
2022/11/04 00:17:18;;;;;;;11.63;10.33;;;;;;;6.90;100.00;95946.91;5017846;28;20203;-68
2022/11/04 00:33:24;;;;;;;11.47;10.37;;;;;;;7.23;100.00;95975.31;4974772;28;20592;-67
2022/11/04 00:33:45;;;;;;;13.40;12.03;;;;;;;7.30;100.00;95985.88;4967776;28;20215;-67
2022/11/04 00:36:15;;;;;;;12.23;10.90;;;;;;;7.43;100.00;95983.34;4982925;28;20210;-63
2022/11/04 00:38:43;;;;;;;11.40;10.50;;;;;;;7.52;100.00;95995.34;5020658;28;20352;-63
2022/11/04 00:41:25;;;;;;;11.90;10.70;;;;;;;7.61;100.00;95985.47;5021039;28;20202;-66
2022/11/04 00:43:56;;;;;;;11.93;10.73;;;;;;;7.65;100.00;95980.63;4997450;28;20358;-66
2022/11/04 00:46:24;;;;;;;13.90;10.87;;;;;;;7.72;100.00;95981.47;5025829;28;20236;-60
2022/11/04 00:48:52;;;;;;;11.67;10.50;;;;;;;7.75;100.00;95988.16;4979678;28;20472;-62
2022/11/04 00:51:22;;;;;;;11.70;10.70;;;;;;;7.79;100.00;95987.59;5027550;28;20231;-61
2022/11/04 00:53:50;;;;;;;11.37;10.30;;;;;;;7.81;100.00;95975.03;5026826;28;20308;-62
2022/11/04 00:56:18;;;;;;;12.33;11.17;;;;;;;7.95;100.00;95978.53;5028284;28;20207;-67
2022/11/04 00:58:48;;;;;;;11.77;10.43;;;;;;;7.79;100.00;95971.78;5001676;28;20234;-69
2022/11/04 01:01:18;;;;;;;12.77;11.20;;;;;;;7.66;100.00;95983.06;5024361;28;20203;-69
2022/11/04 01:03:47;;;;;;;10.60;9.60;;;;;;;7.62;100.00;96002.94;5021798;28;20246;-67
2022/11/04 01:06:15;;;;;;;10.80;9.83;;;;;;;7.56;100.00;96014.22;4982443;28;20215;-68
2022/11/04 01:08:45;;;;;;;11.80;10.80;;;;;;;7.48;100.00;96004.66;5021556;28;20264;-67
2022/11/04 01:11:15;;;;;;;12.60;10.50;;;;;;;7.45;100.00;96005.06;5026974;28;20589;-66
2022/11/04 01:13:43;;;;;;;12.00;10.77;;;;;;;7.49;100.00;96008.09;5000395;28;20206;-67
2022/11/04 01:16:11;;;;;;;11.33;10.33;;;;;;;7.45;100.00;96002.41;5025723;28;20199;-67
2022/11/04 01:18:40;;;;;;;12.13;10.67;;;;;;;7.45;100.00;96005.06;5022950;28;20738;-68
2022/11/04 01:21:11;;;;;;;10.67;9.67;;;;;;;7.43;100.00;96008.88;4981567;28;20219;-67
2022/11/04 01:23:40;;;;;;;11.67;10.77;;;;;;;7.41;100.00;96019.63;5021123;28;20562;-67
2022/11/04 01:26:11;;;;;;;12.03;11.03;;;;;;;7.42;100.00;96026.53;5023884;28;20237;-66
2022/11/04 01:28:40;;;;;;;11.80;10.63;;;;;;;7.44;100.00;96029.78;5001712;28;20243;-67
2022/11/04 01:31:09;;;;;;;11.90;10.80;;;;;;;7.47;100.00;96036.47;5022784;28;20367;-66
2022/11/04 01:33:37;;;;;;;12.50;10.90;;;;;;;7.53;100.00;96041.78;5023240;28;20304;-66
2022/11/04 01:36:06;;;;;;;13.10;12.03;;;;;;;7.55;100.00;96038.94;5015503;28;20566;-65
2022/11/04 01:38:35;;;;;;;12.33;11.23;;;;;;;7.59;100.00;96048.13;4977857;28;20650;-64
2022/11/04 01:41:03;;;;;;;12.37;11.23;;;;;;;7.60;100.00;96052.41;5022990;28;20261;-65
2022/11/04 01:43:46;;;;;;;11.93;10.83;;;;;;;7.63;100.00;96045.91;5023300;28;20222;-64
2022/11/04 01:46:23;;;;;;;12.17;10.97;;;;;;;7.67;100.00;96055.06;5025358;28;20202;-66
2022/11/04 01:48:51;;;;;;;12.97;11.70;;;;;;;7.79;100.00;96055.31;5020646;28;20227;-64
2022/11/04 01:51:21;;;;;;;12.37;11.13;;;;;;;7.78;100.00;96053.69;5024434;28;20211;-62
2022/11/04 01:53:51;;;;;;;11.87;10.77;;;;;;;7.86;100.00;96058.81;4977823;28;20246;-66
2022/11/04 01:57:15;;;;;;;12.17;11.17;;;;;;;7.91;100.00;96055.59;5024359;28;21665;-66
2022/11/04 01:59:44;;;;;;;12.13;11.13;;;;;;;7.92;100.00;96042.22;5001103;28;20331;-66
2022/11/04 02:02:13;;;;;;;12.47;11.17;;;;;;;7.92;100.00;96049.31;5023151;28;20203;-67
2022/11/04 02:04:43;;;;;;;12.07;11.07;;;;;;;7.92;100.00;96063.31;5022824;28;20234;-67
2022/11/04 02:07:12;;;;;;;12.33;11.13;;;;;;;7.92;100.00;96071.22;5023484;28;20209;-68
2022/11/04 02:09:41;;;;;;;12.50;11.30;;;;;;;7.98;100.00;96074.91;4976246;28;20464;-68
2022/11/04 02:14:58;;;;;;;15.73;12.43;;;;;;;8.05;100.00;96085.50;5000608;28;20249;-65
2022/11/04 02:17:36;;;;;;;14.50;12.00;;;;;;;8.10;100.00;96083.91;5021694;28;20682;-68
2022/11/04 02:20:21;;;;;;;11.67;10.43;;;;;;;8.18;100.00;96080.28;5022048;28;20203;-68
2022/11/04 02:23:01;;;;;;;11.20;10.17;;;;;;;8.23;100.00;96077.88;4985532;28;20211;-66
2022/11/04 02:25:52;;;;;;;11.07;10.07;;;;;;;8.33;100.00;96081.97;5021076;28;20660;-61
2022/11/04 02:28:45;;;;;;;9.70;8.80;;;;;;;8.35;100.00;96079.97;5021830;28;20744;-64
2022/11/04 02:31:16;;;;;;;9.70;8.80;;;;;;;8.39;100.00;96092.56;4998922;28;20250;-63
2022/11/04 02:33:47;;;;;;;9.90;9.00;;;;;;;8.40;100.00;96088.09;5021097;28;21980;-63
2022/11/04 02:36:26;;;;;;;9.30;8.23;;;;;;;8.42;100.00;96094.00;5023393;28;20213;-65
2022/11/04 02:38:57;;;;;;;8.53;7.90;;;;;;;8.40;100.00;96094.19;4971084;28;20222;-64
2022/11/04 02:41:34;;;;;;;8.83;7.93;;;;;;;8.39;100.00;96102.31;4944432;28;21092;-66
2022/11/04 02:44:08;;;;;;;9.23;8.30;;;;;;;8.29;100.00;96102.66;5019739;28;20394;-66
2022/11/04 02:46:40;;;;;;;8.17;7.47;;;;;;;8.31;100.00;96097.19;4998500;28;20225;-64
2022/11/04 02:49:11;;;;;;;8.93;8.03;;;;;;;8.29;100.00;96094.75;5020910;28;20581;-64
2022/11/04 02:51:47;;;;;;;10.17;7.70;;;;;;;8.29;100.00;96100.03;5019502;28;20822;-66
2022/11/04 02:54:19;;;;;;;7.70;6.87;;;;;;;8.25;100.00;96101.44;4997674;28;20761;-64
2022/11/04 02:56:49;;;;;;;6.63;6.03;;;;;;;8.28;100.00;96101.03;4974402;28;20872;-62
2022/11/04 02:59:22;;;;;;;8.70;7.00;;;;;;;8.23;100.00;96088.44;5020994;28;20245;-64
2022/11/04 03:01:54;;;;;;;6.47;6.00;;;;;;;8.25;100.00;96106.72;5020375;28;20830;-66
2022/11/04 03:04:27;;;;;;;8.03;6.47;;;;;;;8.27;100.00;96104.69;5008461;28;20376;-65
2022/11/04 03:06:57;;;;;;;6.77;6.10;;;;;;;8.28;100.00;96114.25;5022069;28;20798;-64
2022/11/04 03:09:28;;;;;;;5.63;5.13;;;;;;;8.29;100.00;96117.69;5001302;28;20523;-61
2022/11/04 03:12:00;;;;;;;5.90;5.50;;;;;;;8.27;100.00;96115.25;4977380;28;20214;-65
2022/11/04 03:14:31;;;;;;;5.30;4.90;;;;;;;8.30;100.00;96117.50;5018469;28;20509;-65
2022/11/04 03:17:04;;;;;;;6.30;5.67;;;;;;;8.25;100.00;96112.78;5006638;28;20650;-63
2022/11/04 03:19:39;;;;;;;5.50;5.10;;;;;;;8.31;100.00;96113.84;5020726;28;20225;-64
2022/11/04 03:22:10;;;;;;;5.77;5.27;;;;;;;8.30;100.00;96111.38;5019986;28;20205;-66
2022/11/04 03:24:40;;;;;;;5.10;4.70;;;;;;;8.25;100.00;96107.50;4997622;28;20234;-66
2022/11/04 03:27:14;;;;;;;5.60;5.10;;;;;;;8.26;100.00;96113.63;4974193;28;20218;-65
2022/11/04 03:29:47;;;;;;;5.00;4.60;;;;;;;8.25;100.00;96106.72;5021303;28;20234;-62
2022/11/04 03:32:23;;;;;;;4.40;4.10;;;;;;;8.31;100.00;96105.09;4995939;28;20210;-62
2022/11/04 03:34:51;;;;;;;4.40;4.00;;;;;;;8.26;100.00;96103.88;5021444;28;20213;-66
2022/11/04 03:37:19;;;;;;;4.83;4.37;;;;;;;8.21;100.00;96102.84;5019873;28;20222;-67
2022/11/04 03:39:47;;;;;;;6.07;4.77;;;;;;;8.22;100.00;96113.19;5000441;28;20523;-65
2022/11/04 03:42:22;;;;;;;4.50;4.10;;;;;;;8.22;100.00;96113.19;4973097;28;21586;-66
2022/11/04 03:44:51;;;;;;;4.30;4.00;;;;;;;8.16;100.00;96121.09;5020238;28;20821;-63
2022/11/04 03:47:23;;;;;;;4.50;4.20;;;;;;;8.11;100.00;96122.47;5018214;28;20218;-65
2022/11/04 03:49:53;;;;;;;3.70;3.40;;;;;;;8.13;100.00;96124.09;4998771;28;20380;-65
2022/11/04 03:52:21;;;;;;;3.57;3.37;;;;;;;8.10;100.00;96112.91;5016151;28;21581;-64
2022/11/04 03:54:49;;;;;;;3.60;3.40;;;;;;;8.11;100.00;96114.53;5020764;28;20199;-64
2022/11/04 03:57:30;;;;;;;3.57;3.27;;;;;;;8.09;100.00;96107.84;4956465;28;21107;-57
2022/11/04 04:00:07;;;;;;;3.27;3.07;;;;;;;8.04;100.00;96103.16;5019473;28;21504;-65
2022/11/04 04:02:43;;;;;;;3.30;3.10;;;;;;;8.03;100.00;96112.06;5021693;28;20931;-63
2022/11/04 04:05:14;;;;;;;4.87;3.70;;;;;;;8.10;100.00;96114.75;4994041;28;20494;-63
2022/11/04 04:07:50;;;;;;;3.73;3.50;;;;;;;8.05;100.00;96111.88;5014230;28;20207;-65
2022/11/04 04:10:40;;;;;;;3.20;3.00;;;;;;;8.03;100.00;96114.72;4995326;28;20975;-64
2022/11/04 04:13:20;;;;;;;3.40;3.10;;;;;;;8.00;100.00;96120.38;4973812;28;20211;-61
2022/11/04 04:15:52;;;;;;;3.30;3.10;;;;;;;8.02;100.00;96114.91;5019530;28;20419;-63
2022/11/04 04:18:29;;;;;;;3.30;3.10;;;;;;;7.96;100.00;96119.97;5019974;28;20650;-62
2022/11/04 04:20:59;;;;;;;2.70;2.57;;;;;;;7.95;100.00;96122.78;4998521;28;20233;-64
2022/11/04 04:29:04;;;;;;;2.80;2.60;;;;;;;7.91;100.00;96122.34;4972430;28;21105;-63
2022/11/04 04:31:49;;;;;;;2.37;2.17;;;;;;;7.90;100.00;96119.91;5019417;28;20229;-65
2022/11/04 04:34:21;;;;;;;2.50;2.40;;;;;;;7.90;100.00;96118.06;5020056;28;20218;-65
2022/11/04 04:36:53;;;;;;;2.83;2.63;;;;;;;7.88;100.00;96112.19;5011169;28;20498;-63
2022/11/04 04:45:03;;;;;;;2.50;2.40;;;;;;;7.84;100.00;96116.22;5020264;28;20279;-59
2022/11/04 04:47:38;;;;;;;2.90;2.80;;;;;;;7.80;100.00;96117.59;5024496;28;20781;-64
2022/11/04 04:50:10;;;;;;;2.70;2.60;;;;;;;7.81;100.00;96116.59;4967160;28;21613;-60
2022/11/04 04:52:40;;;;;;;4.17;2.90;;;;;;;7.82;100.00;96112.97;5024156;28;20308;-65
2022/11/04 04:55:09;;;;;;;2.60;2.40;;;;;;;7.78;100.00;96117.00;5000683;28;20355;-63
2022/11/04 04:57:37;;;;;;;2.57;2.47;;;;;;;7.78;100.00;96101.16;5024798;28;20369;-65
2022/11/04 05:00:07;;;;;;;3.83;2.47;;;;;;;7.75;100.00;96097.09;5022917;28;20377;-62
2022/11/04 05:02:36;;;;;;;2.70;2.50;;;;;;;7.78;100.00;96086.19;4996548;28;20217;-65
2022/11/04 05:05:04;;;;;;;2.50;2.40;;;;;;;7.77;100.00;96081.91;4956367;28;20481;-64
2022/11/04 05:07:34;;;;;;;2.40;2.20;;;;;;;7.79;100.00;96084.34;5002690;28;20203;-64
2022/11/04 05:10:02;;;;;;;2.47;2.30;;;;;;;7.80;100.00;96086.78;5002001;28;20694;-64
2022/11/04 05:13:24;;;;;;;2.40;2.20;;;;;;;7.80;100.00;96083.31;5002288;28;20206;-65
2022/11/04 05:15:19;;;;;;;2.57;2.40;;;;;;;7.77;100.00;96078.44;5023976;28;20202;-64
2022/11/04 05:17:47;;;;;;;2.30;2.20;;;;;;;7.78;100.00;96069.53;5021531;28;20198;-62
2022/11/04 05:20:15;;;;;;;2.20;2.10;;;;;;;7.76;100.00;96074.97;4988524;28;20211;-64
2022/11/04 05:22:45;;;;;;;2.50;2.30;;;;;;;7.75;100.00;96073.34;5005499;28;20272;-66
2022/11/04 05:25:14;;;;;;;2.60;2.50;;;;;;;7.77;100.00;96071.38;4990185;28;20304;-66
2022/11/04 05:27:42;;;;;;;2.67;2.47;;;;;;;7.73;100.00;96074.56;4994479;28;20207;-64
2022/11/04 05:30:11;;;;;;;2.40;2.30;;;;;;;7.68;100.00;96069.88;5016343;28;20218;-65
2022/11/04 05:32:40;;;;;;;2.30;2.20;;;;;;;7.70;100.00;96064.41;5018606;28;20214;-65
2022/11/04 05:35:09;;;;;;;2.23;2.13;;;;;;;7.71;100.00;96055.50;5013854;28;21563;-62
2022/11/04 05:37:37;;;;;;;2.47;2.37;;;;;;;7.60;100.00;96052.41;4992403;28;20843;-62
2022/11/04 05:40:08;;;;;;;3.17;2.60;;;;;;;7.55;100.00;96038.94;5028061;28;21497;-64
2022/11/04 05:42:36;;;;;;;2.17;2.07;;;;;;;7.57;100.00;96046.69;4973882;28;20211;-63
2022/11/04 05:45:06;;;;;;;2.33;2.13;;;;;;;7.56;100.00;96055.59;5023599;28;20206;-64
2022/11/04 05:47:34;;;;;;;2.60;2.50;;;;;;;7.55;100.00;96085.59;5004409;28;20214;-61
2022/11/04 05:50:03;;;;;;;2.67;1.97;;;;;;;7.52;100.00;96103.44;5023464;28;20210;-63
2022/11/04 05:52:32;;;;;;;2.70;2.50;;;;;;;7.57;100.00;96094.13;4996306;28;20218;-61
2022/11/04 05:55:00;;;;;;;2.20;2.10;;;;;;;7.50;100.00;96094.06;5008616;28;20210;-58
2022/11/04 05:57:29;;;;;;;2.60;2.40;;;;;;;7.52;100.00;96103.44;4996130;28;20207;-59
2022/11/04 05:59:57;;;;;;;2.87;2.40;;;;;;;7.52;100.00;96100.78;4998612;28;20222;-61
2022/11/04 06:02:26;;;;;;;2.57;2.30;;;;;;;7.50;100.00;96091.44;5002357;28;21661;-62
2022/11/04 06:04:54;;;;;;;3.23;2.73;;;;;;;7.48;100.00;96107.44;5023780;28;20298;-63
2022/11/04 06:07:22;;;;;;;2.70;2.60;;;;;;;7.49;100.00;96114.34;4972413;28;20309;-62
2022/11/04 06:09:50;;;;;;;3.40;3.10;;;;;;;7.45;100.00;96126.28;4998492;28;20459;-62
2022/11/04 06:12:18;;;;;;;4.50;4.10;;;;;;;7.47;100.00;96132.19;5016930;28;20218;-63
2022/11/04 06:14:48;;;;;;;6.03;5.53;;;;;;;7.46;100.00;96133.19;4999275;28;20739;-63
2022/11/04 06:17:17;;;;;;;4.97;4.47;;;;;;;7.42;100.00;96139.84;4990559;28;20821;-64
2022/11/04 06:19:46;;;;;;;5.27;4.93;;;;;;;7.44;100.00;96139.63;5006463;28;21303;-63
2022/11/04 06:22:16;;;;;;;5.13;4.73;;;;;;;7.44;100.00;96127.28;4989369;28;20211;-64
2022/11/04 06:24:44;;;;;;;5.10;4.70;;;;;;;7.43;100.00;96135.38;4997613;28;20470;-61
2022/11/04 06:27:12;;;;;;;4.80;4.40;;;;;;;7.44;100.00;96142.28;5002895;28;20932;-64
2022/11/04 06:29:41;;;;;;;4.53;4.20;;;;;;;7.53;100.00;96141.13;4997920;28;20222;-62
2022/11/04 06:32:13;;;;;;;6.67;5.77;;;;;;;7.55;100.00;96146.22;5022337;28;20348;-64
2022/11/04 06:34:41;;;;;;;5.17;4.70;;;;;;;7.60;100.00;96149.09;5021800;28;20215;-61
2022/11/04 06:37:12;;;;;;;5.27;4.77;;;;;;;7.62;100.00;96132.09;5003214;28;20207;-63
2022/11/04 06:39:40;;;;;;;5.77;5.03;;;;;;;7.70;100.00;96152.22;4978834;28;20313;-63
2022/11/04 06:42:09;;;;;;;3.77;3.47;;;;;;;7.70;100.00;96160.13;4978148;28;20211;-63
2022/11/04 06:44:37;;;;;;;3.23;2.93;;;;;;;7.72;100.00;96147.56;5021854;28;20382;-58
2022/11/04 06:47:05;;;;;;;2.03;1.83;;;;;;;7.66;100.00;96149.16;5000473;28;20880;-62
2022/11/04 06:49:35;;;;;;;1.80;1.70;;;;;;;7.78;100.00;96130.16;5020189;28;20339;-58
2022/11/04 06:52:03;;;;;;;2.40;2.20;;;;;;;7.75;100.00;96135.84;5021974;28;20207;-62
2022/11/04 06:54:32;;;;;;;1.80;1.73;;;;;;;7.66;100.00;96143.88;4944657;28;20226;-63
2022/11/04 06:57:01;;;;;;;2.30;2.10;;;;;;;7.68;100.00;96143.69;5010652;28;21594;-63
2022/11/04 06:59:29;;;;;;;2.50;2.30;;;;;;;7.64;100.00;96132.72;5020206;28;20225;-65
2022/11/04 07:01:58;;;;;;;3.00;2.80;;;;;;;7.75;100.00;96151.66;5022997;28;20199;-62
2022/11/04 07:04:26;;;;;;;2.03;1.93;;;;;;;7.74;100.00;96150.03;5011710;28;20211;-65
2022/11/04 07:06:56;;;;;;;2.13;1.93;;;;;;;7.72;100.00;96142.28;5023247;28;20635;-65
2022/11/04 07:09:24;;;;;;;2.37;2.17;;;;;;;7.72;100.00;96141.50;4997363;28;20466;-65
2022/11/04 07:11:52;;;;;;;2.13;2.00;;;;;;;7.66;100.00;96146.53;4975183;28;20512;-61
2022/11/04 07:14:20;;;;;;;2.03;1.90;;;;;;;7.70;100.00;96141.66;5020465;28;20214;-63
2022/11/04 07:16:50;;;;;;;2.23;1.33;;;;;;;7.64;100.00;96139.81;5020261;28;21344;-63
2022/11/04 07:19:18;;;;;;;1.73;1.70;;;;;;;7.68;100.00;96131.34;5021395;28;20507;-64
2022/11/04 07:21:46;;;;;;;1.80;1.70;;;;;;;7.73;100.00;96120.19;5020932;28;20355;-66
2022/11/04 07:24:16;;;;;;;2.00;1.80;;;;;;;7.74;100.00;96121.03;4999832;28;20226;-62
2022/11/04 07:26:44;;;;;;;1.93;1.83;;;;;;;7.76;100.00;96111.09;4973168;28;20471;-63
2022/11/04 07:29:12;;;;;;;3.70;2.13;;;;;;;7.78;100.00;96117.81;5020350;28;20963;-64
2022/11/04 07:31:40;;;;;;;1.97;1.87;;;;;;;7.81;100.00;96109.53;5018354;28;20199;-64
2022/11/04 07:34:09;;;;;;;2.30;2.10;;;;;;;7.81;100.00;96106.88;5022602;28;21024;-64
2022/11/04 07:36:37;;;;;;;2.20;2.10;;;;;;;7.82;100.00;96110.31;5018846;28;20207;-65
2022/11/04 07:39:05;;;;;;;2.00;1.90;;;;;;;7.91;100.00;96098.59;5000746;28;20257;-63
2022/11/04 07:41:35;;;;;;;2.80;1.83;;;;;;;7.92;100.00;96071.22;4986309;28;20539;-65
2022/11/04 07:44:04;;;;;;;1.93;1.83;;;;;;;7.99;100.00;96071.25;5021592;28;20218;-62
2022/11/04 07:46:33;;;;;;;4.47;4.00;;;;;;;7.98;100.00;96074.91;5019501;28;20235;-65
2022/11/04 07:49:01;;;;;;;2.27;2.17;;;;;;;8.01;100.00;96079.78;5021507;28;20408;-66
2022/11/04 07:51:31;;;;;;;2.43;2.33;;;;;;;8.07;100.00;96094.84;5019576;28;20500;-63
2022/11/04 07:53:59;;;;;;;3.10;2.90;;;;;;;8.05;100.00;96104.78;5021922;28;20763;-62
2022/11/04 07:56:27;;;;;;;2.70;2.50;;;;;;;8.05;100.00;96119.81;4997627;28;20692;-64
2022/11/04 07:58:57;;;;;;;2.57;2.37;;;;;;;8.05;100.00;96107.41;4975163;28;20350;-63
2022/11/04 08:01:25;;;;;;;3.50;3.27;;;;;;;8.00;100.00;96101.09;5019833;28;20661;-64
2022/11/04 08:03:53;;;;;;;3.70;3.40;;;;;;;7.99;100.00;96094.22;5021717;28;20714;-64
2022/11/04 08:06:22;;;;;;;4.03;3.70;;;;;;;8.01;100.00;96100.91;5019441;28;20202;-64
2022/11/04 08:08:52;;;;;;;3.73;3.50;;;;;;;7.95;100.00;96105.16;5020621;28;20436;-60
2022/11/04 08:11:24;;;;;;;3.07;2.87;;;;;;;7.93;100.00;96111.63;4998053;28;21957;-61
2022/11/04 08:13:52;;;;;;;3.30;3.03;;;;;;;7.90;100.00;96115.44;4974858;28;20668;-63
2022/11/04 08:16:24;;;;;;;4.30;3.93;;;;;;;7.87;100.00;96129.00;5020893;28;20392;-62
2022/11/04 08:19:01;;;;;;;3.80;3.50;;;;;;;7.86;100.00;96137.13;5022717;28;20385;-65
2022/11/04 08:21:30;;;;;;;3.80;3.60;;;;;;;7.95;100.00;96146.53;5020685;28;20205;-65
2022/11/04 08:23:58;;;;;;;3.97;3.73;;;;;;;7.90;100.00;96167.38;5020759;28;20289;-62
2022/11/04 08:26:26;;;;;;;20.03;15.30;;;;;;;7.86;100.00;96179.31;4996912;28;20222;-64
2022/11/04 08:28:55;;;;;;;26.63;23.03;;;;;;;7.91;100.00;96176.94;4985296;28;20854;-65
2022/11/04 08:31:26;;;;;;;7.50;6.63;;;;;;;7.92;100.00;96182.00;5021321;28;20199;-65
2022/11/04 08:33:54;;;;;;;5.67;5.27;;;;;;;7.81;100.00;96179.88;5022555;28;20206;-63
2022/11/04 08:36:25;;;;;;;4.30;4.00;;;;;;;7.71;100.00;96180.22;5023127;28;20203;-66
2022/11/04 08:38:54;;;;;;;4.43;4.13;;;;;;;7.73;100.00;96178.19;5020753;28;20211;-63
2022/11/04 08:41:25;;;;;;;3.90;3.67;;;;;;;7.73;100.00;96178.19;5024781;28;20869;-63
2022/11/04 08:43:53;;;;;;;3.60;3.37;;;;;;;7.73;100.00;96175.56;4959985;28;21745;-63
2022/11/04 08:46:22;;;;;;;3.93;3.23;;;;;;;7.72;100.00;96168.66;5019162;28;20218;-60
2022/11/04 08:48:51;;;;;;;3.20;3.00;;;;;;;7.80;100.00;96186.16;5019562;28;20480;-63
2022/11/04 08:51:22;;;;;;;3.20;2.90;;;;;;;7.81;100.00;96193.91;5021101;28;20203;-63
2022/11/04 08:53:50;;;;;;;3.53;3.23;;;;;;;7.86;100.00;96190.69;5018490;28;20784;-63
2022/11/04 08:56:21;;;;;;;3.40;3.20;;;;;;;7.90;100.00;96183.22;5019436;28;20211;-60
2022/11/04 08:58:50;;;;;;;3.70;3.10;;;;;;;7.96;100.00;96177.16;4955157;28;20409;-64
2022/11/04 09:01:19;;;;;;;2.80;2.67;;;;;;;8.04;100.00;96168.28;5019977;28;20728;-63
2022/11/04 09:03:48;;;;;;;2.87;2.67;;;;;;;8.19;100.00;96160.28;4953120;28;22234;-64
2022/11/04 09:06:21;;;;;;;4.00;2.97;;;;;;;8.48;100.00;96163.66;5020731;28;20396;-63
2022/11/04 09:08:50;;;;;;;2.37;2.27;;;;;;;8.63;100.00;96161.75;4996945;28;20242;-63
2022/11/04 09:11:18;;;;;;;3.30;2.83;;;;;;;8.84;100.00;96146.78;5021116;28;20977;-62
2022/11/04 09:13:47;;;;;;;2.53;2.37;;;;;;;9.07;100.00;96140.34;5020080;28;20214;-63
2022/11/04 09:16:16;;;;;;;2.63;2.43;;;;;;;9.24;100.00;96128.38;5025508;28;20203;-63
2022/11/04 09:18:44;;;;;;;2.43;2.30;;;;;;;9.61;100.00;96124.53;4976047;28;21395;-63
2022/11/04 09:21:12;;;;;;;3.03;2.63;;;;;;;9.57;100.00;96124.13;5022520;28;20340;-63
2022/11/04 09:23:42;;;;;;;3.07;2.77;;;;;;;9.52;100.00;96100.94;5016092;28;20222;-64
2022/11/04 09:26:12;;;;;;;3.40;2.30;;;;;;;9.48;100.00;96110.28;5015960;28;20293;-63
2022/11/04 09:28:41;;;;;;;3.13;2.80;;;;;;;9.35;100.00;96112.94;5022887;28;20227;-63
2022/11/04 09:31:10;;;;;;;2.93;2.73;;;;;;;9.13;100.00;96110.47;5023912;28;20521;-61
2022/11/04 09:33:39;;;;;;;3.10;2.90;;;;;;;9.16;100.00;96118.00;5004169;28;20207;-65
2022/11/04 09:36:08;;;;;;;3.50;2.80;;;;;;;9.31;100.00;96117.00;5001122;28;20473;-65
2022/11/04 09:38:37;;;;;;;3.00;2.80;;;;;;;9.42;100.00;96105.81;5024373;28;20222;-64
2022/11/04 09:41:32;;;;;;;3.20;3.00;;;;;;;9.66;100.00;96103.56;5000386;28;20542;-61
2022/11/04 09:44:04;;;;;;;4.90;3.00;;;;;;;9.98;100.00;96103.72;5021332;28;20699;-65
2022/11/04 09:46:33;;;;;;;2.77;2.57;;;;;;;10.12;100.00;96101.88;5025072;28;20206;-65
2022/11/04 09:49:03;;;;;;;3.30;3.00;;;;;;;10.29;100.00;96091.66;4972472;28;21464;-64
2022/11/04 09:51:32;;;;;;;2.97;2.20;;;;;;;10.37;100.00;96086.09;5023729;28;20225;-64
2022/11/04 09:54:22;;;;;;;2.90;2.40;;;;;;;10.10;100.00;96080.91;5023323;28;21146;-61
2022/11/04 09:56:53;;;;;;;3.30;2.53;;;;;;;10.19;100.00;96084.13;4999776;28;20297;-65
2022/11/04 09:59:25;;;;;;;2.63;2.43;;;;;;;10.14;100.00;96087.41;5025039;28;20219;-64
2022/11/04 10:02:07;;;;;;;2.23;2.13;;;;;;;10.04;98.33;96076.47;5020366;28;20214;-63
2022/11/04 10:04:49;;;;;;;3.60;2.50;;;;;;;10.06;99.48;96076.25;4975575;28;22374;-63
2022/11/04 10:07:27;;;;;;;2.60;2.27;;;;;;;9.84;98.09;96074.66;5021167;28;20203;-61
2022/11/04 10:10:03;;;;;;;3.47;2.20;;;;;;;9.83;100.00;96069.56;5022031;28;20443;-64
2022/11/04 10:12:51;;;;;;;2.57;2.30;;;;;;;9.83;100.00;96066.91;4999022;28;20284;-65
2022/11/04 10:15:45;;;;;;;2.37;2.20;;;;;;;9.83;100.00;96065.09;5022618;28;20412;-63
2022/11/04 10:18:25;;;;;;;2.53;2.37;;;;;;;9.73;100.00;96064.72;5023839;28;21889;-65
2022/11/04 10:20:58;;;;;;;3.83;3.43;;;;;;;9.55;100.00;96062.72;4977097;28;20226;-62
2022/11/04 10:23:32;;;;;;;3.00;2.80;;;;;;;9.53;100.00;96068.19;5026065;28;20221;-61
2022/11/04 10:26:06;;;;;;;3.97;3.67;;;;;;;9.52;100.00;96058.63;5022507;28;20205;-65
2022/11/04 10:28:39;;;;;;;3.37;2.10;;;;;;;9.51;100.00;96050.91;5006006;28;20230;-67
2022/11/04 10:31:12;;;;;;;1.60;1.60;;;;;;;9.38;100.00;96052.53;5025333;28;20335;-63
2022/11/04 10:33:43;;;;;;;2.47;1.67;;;;;;;9.30;100.00;96059.88;5024184;28;20218;-65
2022/11/04 10:36:12;;;;;;;2.17;1.40;;;;;;;9.07;100.00;96061.06;4970555;28;20215;-64
2022/11/04 10:38:43;;;;;;;3.43;2.13;;;;;;;9.11;100.00;96073.69;5022338;28;20227;-64
2022/11/04 10:41:22;;;;;;;1.73;1.63;;;;;;;9.08;100.00;96073.28;5019813;28;20701;-64
2022/11/04 10:43:54;;;;;;;1.97;1.87;;;;;;;8.98;100.00;96077.13;4999967;28;20355;-64
2022/11/04 10:46:36;;;;;;;2.03;1.90;;;;;;;9.05;100.00;96092.16;5018666;28;20429;-64
2022/11/04 10:49:16;;;;;;;1.90;1.77;;;;;;;9.08;100.00;96087.28;5022094;28;21626;-64
2022/11/04 10:51:45;;;;;;;2.00;1.90;;;;;;;9.03;100.00;96087.06;4974082;28;20215;-63
2022/11/04 10:54:13;;;;;;;3.23;2.93;;;;;;;9.14;100.00;96076.94;5018416;28;20237;-63
2022/11/04 10:56:43;;;;;;;2.67;2.47;;;;;;;9.12;100.00;96069.19;5022611;28;20677;-62
2022/11/04 10:59:24;;;;;;;2.17;2.07;;;;;;;9.26;100.00;96075.31;4998962;28;21494;-62
2022/11/04 11:01:53;;;;;;;3.50;2.20;;;;;;;9.43;100.00;96075.72;4995362;28;20559;-63
2022/11/04 11:04:27;;;;;;;2.93;2.53;;;;;;;9.46;100.00;96053.34;5021854;28;20199;-64
2022/11/04 11:06:58;;;;;;;2.33;2.23;;;;;;;9.58;100.00;96064.94;4950624;28;20383;-63
2022/11/04 11:09:28;;;;;;;2.53;2.33;;;;;;;9.67;100.00;96065.56;4964389;28;20227;-61
2022/11/04 11:11:59;;;;;;;3.13;2.50;;;;;;;9.47;99.70;96065.53;4970808;28;21021;-65
2022/11/04 11:14:37;;;;;;;3.60;3.40;;;;;;;9.60;97.96;96057.59;5022005;28;20208;-63
2022/11/04 11:17:20;;;;;;;3.30;2.90;;;;;;;9.56;97.89;96053.75;4996968;28;20202;-64
2022/11/04 11:19:50;;;;;;;3.97;3.30;;;;;;;9.47;99.78;96045.22;5024911;28;20218;-61
2022/11/04 11:22:36;;;;;;;3.73;3.43;;;;;;;9.48;100.00;96046.03;5017986;28;20210;-63
2022/11/04 11:25:23;;;;;;;3.83;3.50;;;;;;;9.63;99.25;96045.78;4971119;28;21359;-64
2022/11/04 11:27:53;;;;;;;3.10;2.90;;;;;;;9.58;98.97;96037.66;5021299;28;20225;-61
2022/11/04 11:30:25;;;;;;;2.60;2.13;;;;;;;9.39;99.10;96032.22;4992528;28;20235;-64
2022/11/04 11:32:56;;;;;;;4.87;4.40;;;;;;;9.37;99.25;96034.25;4997369;28;20206;-64
2022/11/04 11:35:28;;;;;;;3.50;3.20;;;;;;;9.39;99.84;96034.84;5022205;28;20942;-64
2022/11/04 11:37:58;;;;;;;4.20;3.43;;;;;;;9.43;99.40;96033.44;5021482;28;20225;-66
2022/11/04 11:40:30;;;;;;;3.40;3.20;;;;;;;9.49;98.55;96037.88;4972607;28;20203;-65
2022/11/04 11:43:00;;;;;;;3.83;3.07;;;;;;;9.46;97.54;96029.53;5019598;28;20946;-65
2022/11/04 11:45:30;;;;;;;3.20;2.63;;;;;;;9.63;97.74;96036.03;5021739;28;20195;-64
2022/11/04 11:47:58;;;;;;;3.73;2.93;;;;;;;9.72;96.28;96030.53;4966194;28;20537;-61
2022/11/04 11:50:33;;;;;;;2.70;2.50;;;;;;;9.70;95.64;96030.75;5020359;28;20230;-64
2022/11/04 11:53:14;;;;;;;2.90;2.67;;;;;;;9.78;95.98;96035.81;4998757;28;20786;-62
2022/11/04 11:55:47;;;;;;;3.80;3.20;;;;;;;9.52;95.01;96037.47;4973009;28;20656;-63
2022/11/04 11:58:25;;;;;;;4.30;3.10;;;;;;;9.49;97.25;96040.53;5019993;28;20606;-62
2022/11/04 12:01:18;;;;;;;4.47;2.90;;;;;;;9.42;98.48;96037.09;4995147;28;20242;-66
2022/11/04 12:03:53;;;;;;;4.17;3.07;;;;;;;9.36;98.42;96036.06;4996452;28;21084;-62
2022/11/04 12:06:48;;;;;;;3.80;3.27;;;;;;;9.32;97.50;96036.69;5017706;28;20734;-62
2022/11/04 12:09:38;;;;;;;4.40;3.20;;;;;;;9.35;99.47;96045.00;4993924;28;20361;-63
2022/11/04 12:12:22;;;;;;;4.60;2.97;;;;;;;9.33;100.00;96047.03;4975477;28;20903;-65
2022/11/04 12:15:16;;;;;;;3.47;3.17;;;;;;;9.13;100.00;96049.69;5013026;28;20355;-61
2022/11/04 12:17:56;;;;;;;2.80;2.60;;;;;;;9.12;100.00;96058.63;4994216;28;20426;-61
2022/11/04 12:20:31;;;;;;;3.97;3.23;;;;;;;9.18;100.00;96064.94;5019766;28;20214;-64
2022/11/04 12:23:06;;;;;;;3.33;3.03;;;;;;;9.04;100.00;96062.28;5021662;28;20198;-66